createdAt,value
2022-12-04T00:00:41.862Z,2.54
2022-12-04T00:01:43.811Z,2.53
2022-12-04T00:02:45.751Z,2.53
2022-12-04T00:03:48.131Z,2.53
2022-12-04T00:04:50.159Z,2.52
2022-12-04T00:05:52.333Z,2.54
2022-12-04T00:06:58.682Z,2.55
2022-12-04T00:08:01.269Z,2.56
2022-12-04T00:09:03.825Z,2.56
2022-12-04T00:10:06.121Z,2.53
2022-12-04T00:11:08.961Z,2.52
2022-12-04T00:12:10.913Z,2.53
2022-12-04T00:13:12.747Z,2.52
2022-12-04T00:14:14.607Z,2.52
2022-12-04T00:15:25.241Z,2.51
2022-12-04T00:16:29.749Z,2.49
2022-12-04T00:17:31.742Z,2.49
2022-12-04T00:18:34.153Z,2.48
2022-12-04T00:19:35.981Z,2.49
2022-12-04T00:20:41.866Z,2.50
2022-12-04T00:21:45.634Z,2.50
2022-12-04T00:22:47.711Z,2.51
2022-12-04T00:23:50.359Z,2.53
2022-12-04T00:24:52.186Z,2.52
2022-12-04T00:25:59.662Z,2.52
2022-12-04T00:27:01.578Z,2.54
2022-12-04T00:28:05.339Z,2.54
2022-12-04T00:29:07.241Z,2.55
2022-12-04T00:30:09.286Z,2.56
2022-12-04T00:31:13.178Z,2.55
2022-12-04T00:32:15.039Z,2.50
2022-12-04T00:33:16.902Z,2.48
2022-12-04T00:34:18.792Z,2.48
2022-12-04T00:35:20.649Z,2.46
2022-12-04T00:36:23.957Z,2.40
2022-12-04T00:37:25.997Z,2.37
2022-12-04T00:38:28.443Z,2.38
2022-12-04T00:39:31.338Z,2.42
2022-12-04T00:40:33.194Z,2.42
2022-12-04T00:41:35.084Z,2.29
2022-12-04T00:42:37.135Z,2.20
2022-12-04T00:43:39.107Z,2.22
2022-12-04T00:44:41.016Z,2.24
2022-12-04T00:45:42.953Z,2.24
2022-12-04T00:46:44.808Z,2.24
2022-12-04T00:47:46.660Z,2.27
2022-12-04T00:48:48.648Z,2.30
2022-12-04T00:49:51.280Z,2.32
2022-12-04T00:50:54.430Z,2.33
2022-12-04T00:51:57.366Z,2.36
2022-12-04T00:52:59.253Z,2.38
2022-12-04T00:54:01.166Z,2.41
2022-12-04T00:55:03.062Z,2.43
2022-12-04T00:56:06.137Z,2.43
2022-12-04T00:57:07.962Z,2.46
2022-12-04T00:58:10.777Z,2.46
2022-12-04T00:59:13.975Z,2.49
2022-12-04T01:00:16.389Z,2.48
2022-12-04T01:01:19.478Z,2.48
2022-12-04T01:02:21.370Z,2.49
2022-12-04T01:03:23.341Z,2.46
2022-12-04T01:04:25.211Z,2.45
2022-12-04T01:05:27.771Z,2.40
2022-12-04T01:06:30.963Z,2.38
2022-12-04T01:07:32.864Z,2.38
2022-12-04T01:08:34.874Z,2.42
2022-12-04T01:09:36.690Z,2.40
2022-12-04T01:10:39.462Z,2.37
2022-12-04T01:11:41.430Z,2.37
2022-12-04T01:12:43.303Z,2.36
2022-12-04T01:13:45.263Z,2.37
2022-12-04T01:14:47.143Z,2.38
2022-12-04T01:15:49.588Z,2.36
2022-12-04T01:16:51.576Z,2.36
2022-12-04T01:17:53.506Z,2.37
2022-12-04T01:18:55.440Z,2.38
2022-12-04T01:19:57.594Z,2.35
2022-12-04T01:20:59.543Z,2.37
2022-12-04T01:22:02.022Z,2.36
2022-12-04T01:23:03.943Z,2.37
2022-12-04T01:24:05.926Z,2.36
2022-12-04T01:25:08.353Z,2.34
2022-12-04T01:26:10.741Z,2.30
2022-12-04T01:27:12.672Z,2.27
2022-12-04T01:28:14.445Z,2.29
2022-12-04T01:29:16.302Z,2.32
2022-12-04T01:30:18.113Z,2.34
2022-12-04T01:31:20.595Z,2.33
2022-12-04T01:32:22.583Z,2.29
2022-12-04T01:33:24.490Z,2.28
2022-12-04T01:34:26.635Z,2.29
2022-12-04T01:35:28.488Z,2.29
2022-12-04T01:36:30.779Z,2.27
2022-12-04T01:37:32.747Z,2.27
2022-12-04T01:38:35.684Z,2.27
2022-12-04T01:39:37.629Z,2.27
2022-12-04T01:40:43.815Z,2.29
2022-12-04T01:41:45.705Z,2.31
2022-12-04T01:42:47.585Z,2.30
2022-12-04T01:44:07.965Z,2.27
2022-12-04T01:45:34.391Z,2.23
2022-12-04T01:46:36.324Z,2.22
2022-12-04T01:47:38.202Z,2.25
2022-12-04T01:48:40.248Z,2.25
2022-12-04T01:49:45.432Z,2.27
2022-12-04T01:50:48.813Z,2.28
2022-12-04T01:51:53.197Z,2.30
2022-12-04T01:52:55.582Z,2.29
2022-12-04T01:54:00.973Z,2.29
2022-12-04T01:55:02.894Z,2.30
2022-12-04T01:56:05.301Z,2.29
2022-12-04T01:57:16.990Z,2.29
2022-12-04T01:58:23.172Z,2.30
2022-12-04T01:59:30.524Z,2.31
2022-12-04T02:00:32.544Z,2.27
2022-12-04T02:01:37.215Z,2.27
2022-12-04T02:02:40.688Z,2.27
2022-12-04T02:03:42.946Z,2.25
2022-12-04T02:04:45.417Z,2.25
2022-12-04T02:05:47.329Z,2.26
2022-12-04T02:06:49.190Z,2.25
2022-12-04T02:07:53.613Z,2.23
2022-12-04T02:08:55.613Z,2.25
2022-12-04T02:10:03.968Z,2.25
2022-12-04T02:11:11.900Z,2.26
2022-12-04T02:12:21.008Z,2.26
2022-12-04T02:13:36.831Z,2.27
2022-12-04T02:14:38.662Z,2.28
2022-12-04T02:15:43.620Z,2.29
2022-12-04T02:16:48.584Z,2.28
2022-12-04T02:17:56.254Z,2.27
2022-12-04T02:18:58.081Z,2.24
2022-12-04T02:20:12.128Z,2.23
2022-12-04T02:21:37.520Z,2.22
2022-12-04T02:23:05.781Z,2.23
2022-12-04T02:24:25.654Z,2.22
2022-12-04T02:25:41.067Z,2.19
2022-12-04T02:26:51.417Z,2.19
2022-12-04T02:28:09.847Z,2.16
2022-12-04T02:29:27.846Z,2.09
2022-12-04T02:30:31.050Z,2.09
2022-12-04T02:31:38.523Z,2.08
2022-12-04T02:32:40.422Z,2.09
2022-12-04T02:33:58.592Z,2.08
2022-12-04T02:35:06.754Z,2.11
2022-12-04T02:36:14.448Z,2.10
2022-12-04T02:37:22.283Z,2.13
2022-12-04T02:38:29.396Z,2.13
2022-12-04T02:39:34.058Z,2.10
2022-12-04T02:40:46.523Z,2.10
2022-12-04T02:41:54.326Z,2.03
2022-12-04T02:43:09.017Z,2.02
2022-12-04T02:44:13.618Z,2.04
2022-12-04T02:45:20.490Z,2.04
2022-12-04T02:46:30.535Z,2.00
2022-12-04T02:47:33.143Z,2.00
2022-12-04T02:48:40.519Z,2.02
2022-12-04T02:49:46.409Z,2.05
2022-12-04T02:50:51.408Z,2.06
2022-12-04T02:51:55.519Z,2.06
2022-12-04T02:53:09.818Z,2.08
2022-12-04T02:54:25.506Z,2.09
2022-12-04T02:55:37.137Z,2.08
2022-12-04T02:56:42.998Z,2.09
2022-12-04T02:57:49.015Z,2.07
2022-12-04T02:58:53.256Z,2.06
2022-12-04T02:59:56.602Z,2.07
2022-12-04T03:01:01.389Z,2.08
2022-12-04T03:02:09.145Z,2.09
2022-12-04T03:03:17.360Z,2.09
2022-12-04T03:04:26.803Z,2.06
2022-12-04T03:05:40.834Z,2.05
2022-12-04T03:06:44.543Z,2.06
2022-12-04T03:08:02.628Z,2.07
2022-12-04T03:09:25.406Z,2.05
2022-12-04T03:10:32.884Z,2.03
2022-12-04T03:11:36.621Z,2.04
2022-12-04T03:12:44.720Z,2.07
2022-12-04T03:13:50.127Z,2.06
2022-12-04T03:14:58.518Z,2.08
2022-12-04T03:16:06.704Z,2.07
2022-12-04T03:17:28.786Z,2.04
2022-12-04T03:18:36.842Z,2.05
2022-12-04T03:19:43.842Z,2.05
2022-12-04T03:20:47.882Z,2.06
2022-12-04T03:21:54.616Z,2.07
2022-12-04T03:23:00.039Z,2.09
2022-12-04T03:24:10.790Z,2.10
2022-12-04T03:25:14.193Z,2.13
2022-12-04T03:26:24.576Z,2.14
2022-12-04T03:27:34.572Z,2.15
2022-12-04T03:28:48.367Z,2.15
2022-12-04T03:30:01.941Z,2.13
2022-12-04T03:31:06.760Z,2.12
2022-12-04T03:32:15.523Z,2.10
2022-12-04T03:33:20.714Z,2.05
2022-12-04T03:34:33.779Z,1.95
2022-12-04T03:35:50.568Z,1.96
2022-12-04T03:37:04.010Z,2.00
2022-12-04T03:38:12.005Z,2.04
2022-12-04T03:39:13.824Z,2.06
2022-12-04T03:40:34.415Z,2.02
2022-12-04T03:42:08.361Z,1.99
2022-12-04T03:43:23.339Z,2.01
2022-12-04T03:44:33.217Z,2.02
2022-12-04T03:45:41.022Z,2.02
2022-12-04T03:47:06.074Z,2.03
2022-12-04T03:48:28.156Z,2.00
2022-12-04T03:49:35.674Z,2.01
2022-12-04T03:50:37.476Z,2.03
2022-12-04T03:51:41.876Z,2.02
2022-12-04T03:52:59.054Z,1.93
2022-12-04T03:54:07.576Z,1.92
2022-12-04T03:55:13.874Z,1.96
2022-12-04T03:56:19.267Z,1.95
2022-12-04T03:57:25.344Z,1.91
2022-12-04T03:58:29.815Z,1.88
2022-12-04T03:59:38.601Z,1.89
2022-12-04T04:00:42.403Z,1.92
2022-12-04T04:01:47.026Z,1.93
2022-12-04T04:03:20.873Z,1.93
2022-12-04T04:04:27.417Z,1.97
2022-12-04T04:05:30.787Z,1.98
2022-12-04T04:06:35.044Z,1.93
2022-12-04T04:08:24.650Z,1.79
2022-12-04T04:09:29.778Z,1.85
2022-12-04T04:10:31.716Z,1.85
2022-12-04T04:11:36.316Z,1.84
2022-12-04T04:12:41.645Z,1.76
2022-12-04T04:14:05.351Z,1.78
2022-12-04T04:15:28.756Z,1.81
2022-12-04T04:16:52.402Z,1.86
2022-12-04T04:18:13.052Z,1.88
2022-12-04T04:19:35.197Z,1.89
2022-12-04T04:21:09.455Z,1.92
2022-12-04T04:22:30.630Z,1.92
2022-12-04T04:23:53.987Z,1.93
2022-12-04T04:24:59.852Z,1.95
2022-12-04T04:26:03.225Z,1.97
2022-12-04T04:27:06.639Z,1.97
2022-12-04T04:28:28.733Z,1.95
2022-12-04T04:29:30.688Z,1.92
2022-12-04T04:30:33.171Z,1.92
2022-12-04T04:31:35.085Z,1.93
2022-12-04T04:33:03.167Z,1.96
2022-12-04T04:34:09.366Z,1.99
2022-12-04T04:35:17.916Z,2.03
2022-12-04T04:36:39.922Z,2.00
2022-12-04T04:37:44.609Z,1.98
2022-12-04T04:38:50.438Z,2.00
2022-12-04T04:39:57.882Z,1.87
2022-12-04T04:41:06.142Z,1.85
2022-12-04T04:42:21.678Z,1.86
2022-12-04T04:43:29.782Z,1.89
2022-12-04T04:44:54.421Z,1.91
2022-12-04T04:45:56.388Z,1.88
2022-12-04T04:47:00.725Z,1.89
2022-12-04T04:48:21.067Z,1.90
2022-12-04T04:49:25.003Z,1.90
2022-12-04T04:50:27.310Z,1.92
2022-12-04T04:51:30.806Z,1.96
2022-12-04T04:52:33.807Z,1.99
2022-12-04T04:53:39.393Z,1.99
2022-12-04T04:54:41.795Z,1.98
2022-12-04T04:55:44.654Z,2.02
2022-12-04T04:56:47.712Z,2.03
2022-12-04T04:57:49.554Z,2.05
2022-12-04T04:58:51.374Z,2.03
2022-12-04T04:59:53.684Z,1.96
2022-12-04T05:01:01.977Z,1.95
2022-12-04T05:02:04.260Z,1.97
2022-12-04T05:03:06.764Z,1.96
2022-12-04T05:04:08.796Z,1.91
2022-12-04T05:05:10.885Z,1.92
2022-12-04T05:06:12.856Z,1.92
2022-12-04T05:07:14.702Z,1.92
2022-12-04T05:08:16.738Z,1.93
2022-12-04T05:09:18.676Z,1.95
2022-12-04T05:10:20.465Z,1.96
2022-12-04T05:11:22.347Z,1.97
2022-12-04T05:12:29.603Z,1.98
2022-12-04T05:13:32.065Z,1.94
2022-12-04T05:14:33.959Z,1.91
2022-12-04T05:15:35.858Z,1.90
2022-12-04T05:16:38.986Z,1.92
2022-12-04T05:17:40.847Z,1.92
2022-12-04T05:19:01.560Z,1.93
2022-12-04T05:20:07.694Z,1.95
2022-12-04T05:21:16.578Z,1.97
2022-12-04T05:22:18.884Z,2.00
2022-12-04T05:23:20.773Z,2.00
2022-12-04T05:24:22.615Z,2.00
2022-12-04T05:25:24.506Z,2.00
2022-12-04T05:26:26.377Z,1.97
2022-12-04T05:27:29.592Z,1.97
2022-12-04T05:28:31.439Z,1.97
2022-12-04T05:29:35.939Z,2.00
2022-12-04T05:30:38.692Z,2.04
2022-12-04T05:31:40.552Z,2.00
2022-12-04T05:32:42.499Z,1.98
2022-12-04T05:33:44.359Z,1.99
2022-12-04T05:34:49.830Z,2.01
2022-12-04T05:35:59.692Z,2.02
2022-12-04T05:37:01.526Z,2.04
2022-12-04T05:38:03.480Z,2.04
2022-12-04T05:39:05.308Z,2.03
2022-12-04T05:40:08.077Z,1.96
2022-12-04T05:41:10.729Z,1.94
2022-12-04T05:42:13.082Z,1.92
2022-12-04T05:43:14.980Z,1.93
2022-12-04T05:44:16.848Z,1.95
2022-12-04T05:45:18.763Z,1.94
2022-12-04T05:46:21.117Z,1.95
2022-12-04T05:47:23.045Z,1.94
2022-12-04T05:48:24.957Z,1.94
2022-12-04T05:49:29.571Z,1.90
2022-12-04T05:50:31.731Z,1.91
2022-12-04T05:51:33.616Z,1.93
2022-12-04T05:52:36.797Z,1.95
2022-12-04T05:53:38.779Z,1.91
2022-12-04T05:54:40.781Z,1.92
2022-12-04T05:55:42.623Z,1.86
2022-12-04T05:56:44.699Z,1.80
2022-12-04T05:57:46.518Z,1.80
2022-12-04T05:58:48.390Z,1.85
2022-12-04T05:59:51.765Z,1.81
2022-12-04T06:00:53.747Z,1.80
2022-12-04T06:01:55.682Z,1.84
2022-12-04T06:02:57.669Z,1.86
2022-12-04T06:03:59.766Z,1.86
2022-12-04T06:05:01.618Z,1.86
2022-12-04T06:06:04.803Z,1.82
2022-12-04T06:07:07.775Z,1.81
2022-12-04T06:08:09.742Z,1.85
2022-12-04T06:09:12.078Z,1.90
2022-12-04T06:10:13.913Z,1.87
2022-12-04T06:11:17.315Z,1.85
2022-12-04T06:12:19.266Z,1.88
2022-12-04T06:13:21.135Z,1.88
2022-12-04T06:14:23.051Z,1.88
2022-12-04T06:15:25.448Z,1.89
2022-12-04T06:16:30.485Z,1.90
2022-12-04T06:17:32.500Z,1.91
2022-12-04T06:18:34.389Z,1.88
2022-12-04T06:19:36.325Z,1.86
2022-12-04T06:20:38.163Z,1.89
2022-12-04T06:21:40.842Z,1.89
2022-12-04T06:22:42.799Z,1.90
2022-12-04T06:23:44.806Z,1.90
2022-12-04T06:24:46.735Z,1.91
2022-12-04T06:25:48.638Z,1.89
2022-12-04T06:27:25.801Z,1.90
2022-12-04T06:28:13.381Z,1.88
2022-12-04T06:29:15.867Z,1.90
2022-12-04T06:30:17.742Z,1.89
2022-12-04T06:31:19.746Z,1.89
2022-12-04T06:32:22.298Z,1.88
2022-12-04T06:33:24.323Z,1.93
2022-12-04T06:34:26.182Z,1.95
2022-12-04T06:35:28.027Z,1.95
2022-12-04T06:36:29.959Z,1.93
2022-12-04T06:37:31.788Z,1.93
2022-12-04T06:38:34.505Z,1.91
2022-12-04T06:39:36.377Z,1.91
2022-12-04T06:40:40.019Z,1.91
2022-12-04T06:41:41.952Z,1.94
2022-12-04T06:42:43.842Z,1.94
2022-12-04T06:43:46.798Z,1.94
2022-12-04T06:44:49.335Z,1.95
2022-12-04T06:46:20.549Z,1.96
2022-12-04T06:47:22.509Z,1.98
2022-12-04T06:48:24.560Z,1.99
2022-12-04T06:49:28.058Z,1.99
2022-12-04T06:50:29.881Z,1.99
2022-12-04T06:51:33.104Z,2.00
2022-12-04T06:52:35.028Z,1.99
2022-12-04T06:53:37.559Z,2.02
2022-12-04T06:54:39.448Z,1.99
2022-12-04T06:55:47.788Z,1.95
2022-12-04T06:56:50.194Z,1.91
2022-12-04T06:57:52.031Z,1.92
2022-12-04T06:58:55.534Z,1.97
2022-12-04T06:59:57.717Z,1.99
2022-12-04T07:00:59.712Z,2.01
2022-12-04T07:02:01.676Z,2.01
2022-12-04T07:03:03.598Z,2.01
2022-12-04T07:04:05.558Z,2.04
2022-12-04T07:05:07.695Z,2.07
2022-12-04T07:06:12.803Z,2.08
2022-12-04T07:07:14.645Z,2.04
2022-12-04T07:08:16.704Z,2.00
2022-12-04T07:09:18.782Z,2.03
2022-12-04T07:10:20.664Z,2.06
2022-12-04T07:11:23.082Z,2.07
2022-12-04T07:12:24.900Z,2.07
2022-12-04T07:13:26.767Z,2.09
2022-12-04T07:14:28.688Z,2.12
2022-12-04T07:15:31.118Z,2.15
2022-12-04T07:16:39.886Z,2.15
2022-12-04T07:17:42.849Z,2.15
2022-12-04T07:18:44.885Z,2.12
2022-12-04T07:19:46.805Z,2.07
2022-12-04T07:20:48.848Z,2.07
2022-12-04T07:21:51.899Z,2.09
2022-12-04T07:22:53.865Z,2.10
2022-12-04T07:23:57.634Z,2.13
2022-12-04T07:24:59.497Z,2.11
2022-12-04T07:26:08.479Z,1.91
2022-12-04T07:27:10.418Z,1.84
2022-12-04T07:28:12.289Z,1.88
2022-12-04T07:29:14.446Z,1.90
2022-12-04T07:30:16.507Z,1.95
2022-12-04T07:31:19.670Z,1.93
2022-12-04T07:32:22.883Z,1.93
2022-12-04T07:33:24.817Z,1.91
2022-12-04T07:34:26.690Z,1.90
2022-12-04T07:35:28.620Z,1.92
2022-12-04T07:36:30.456Z,1.96
2022-12-04T07:37:32.879Z,1.96
2022-12-04T07:38:37.882Z,1.99
2022-12-04T07:39:39.783Z,2.03
2022-12-04T07:40:41.641Z,2.07
2022-12-04T07:41:43.452Z,2.09
2022-12-04T07:42:45.289Z,2.09
2022-12-04T07:43:47.219Z,2.03
2022-12-04T07:44:49.417Z,2.01
2022-12-04T07:45:51.388Z,2.03
2022-12-04T07:46:55.592Z,2.08
2022-12-04T07:47:57.523Z,2.09
2022-12-04T07:48:59.695Z,2.07
2022-12-04T07:50:01.602Z,2.02
2022-12-04T07:51:04.823Z,2.03
2022-12-04T07:52:07.064Z,2.04
2022-12-04T07:53:09.011Z,2.09
2022-12-04T07:54:10.911Z,2.12
2022-12-04T07:55:12.867Z,2.15
2022-12-04T07:56:15.235Z,2.16
2022-12-04T07:57:17.080Z,2.19
2022-12-04T07:58:18.989Z,2.23
2022-12-04T07:59:20.861Z,2.26
2022-12-04T08:00:22.857Z,2.29
2022-12-04T08:01:24.992Z,2.28
2022-12-04T08:02:27.615Z,2.27
2022-12-04T08:03:29.513Z,2.28
2022-12-04T08:04:31.381Z,2.32
2022-12-04T08:05:33.275Z,2.31
2022-12-04T08:06:35.568Z,2.28
2022-12-04T08:07:37.510Z,2.28
2022-12-04T08:08:39.640Z,2.24
2022-12-04T08:09:41.597Z,2.26
2022-12-04T08:10:43.605Z,2.29
2022-12-04T08:11:45.736Z,2.29
2022-12-04T08:12:47.843Z,2.29
2022-12-04T08:13:54.024Z,2.33
2022-12-04T08:14:55.884Z,2.36
2022-12-04T08:15:57.768Z,2.35
2022-12-04T08:16:59.728Z,2.36
2022-12-04T08:18:02.971Z,2.37
2022-12-04T08:19:05.726Z,2.36
2022-12-04T08:20:07.858Z,2.34
2022-12-04T08:21:11.228Z,2.36
2022-12-04T08:22:13.093Z,2.38
2022-12-04T08:23:14.943Z,2.41
2022-12-04T08:24:17.023Z,2.44
2022-12-04T08:25:19.109Z,2.45
2022-12-04T08:26:21.873Z,2.47
2022-12-04T08:27:23.764Z,2.48
2022-12-04T08:28:25.582Z,2.45
2022-12-04T08:29:28.988Z,2.48
2022-12-04T08:30:31.029Z,2.50
2022-12-04T08:31:34.024Z,2.53
2022-12-04T08:32:35.973Z,2.55
2022-12-04T08:33:37.932Z,2.55
2022-12-04T08:34:40.041Z,2.54
2022-12-04T08:35:41.982Z,2.55
2022-12-04T08:36:43.865Z,2.56
2022-12-04T08:37:45.720Z,2.58
2022-12-04T08:38:48.776Z,2.62
2022-12-04T08:39:50.703Z,2.59
2022-12-04T08:40:52.635Z,2.59
2022-12-04T08:41:57.180Z,2.60
2022-12-04T08:42:59.477Z,2.58
2022-12-04T08:44:01.421Z,2.59
2022-12-04T08:45:03.723Z,2.58
2022-12-04T08:46:07.160Z,2.58
2022-12-04T08:47:09.256Z,2.60
2022-12-04T08:48:11.283Z,2.60
2022-12-04T08:49:13.241Z,2.60
2022-12-04T08:50:15.590Z,2.62
2022-12-04T08:51:18.554Z,2.63
2022-12-04T08:52:20.390Z,2.59
2022-12-04T08:53:22.519Z,2.59
2022-12-04T08:54:24.449Z,2.61
2022-12-04T08:55:26.368Z,2.63
2022-12-04T08:56:29.716Z,2.65
2022-12-04T08:57:31.858Z,2.65
2022-12-04T08:58:33.926Z,2.67
2022-12-04T08:59:35.902Z,2.67
2022-12-04T09:00:38.570Z,2.70
2022-12-04T09:01:40.857Z,2.72
2022-12-04T09:02:43.318Z,2.74
2022-12-04T09:03:46.086Z,2.73
2022-12-04T09:04:48.614Z,2.78
2022-12-04T09:05:51.082Z,2.83
2022-12-04T09:06:53.425Z,2.83
2022-12-04T09:07:56.107Z,2.83
2022-12-04T09:08:58.824Z,2.86
2022-12-04T09:10:01.413Z,2.90
2022-12-04T09:11:19.339Z,2.93
2022-12-04T09:12:21.546Z,2.94
2022-12-04T09:13:23.763Z,2.95
2022-12-04T09:14:27.265Z,2.94
2022-12-04T09:15:30.357Z,2.94
2022-12-04T09:16:34.862Z,2.97
2022-12-04T09:17:37.719Z,3.00
2022-12-04T09:18:40.855Z,3.02
2022-12-04T09:19:42.983Z,3.02
2022-12-04T09:20:45.482Z,3.04
2022-12-04T09:21:48.404Z,3.09
2022-12-04T09:23:03.793Z,3.11
2022-12-04T09:24:06.918Z,3.15
2022-12-04T09:25:09.707Z,3.15
2022-12-04T09:26:23.405Z,3.13
2022-12-04T09:27:25.546Z,3.16
2022-12-04T09:28:31.023Z,3.20
2022-12-04T09:29:33.200Z,3.23
2022-12-04T09:30:35.356Z,3.24
2022-12-04T09:31:41.587Z,3.26
2022-12-04T09:32:45.189Z,3.31
2022-12-04T09:33:48.363Z,3.34
2022-12-04T09:34:52.784Z,3.33
2022-12-04T09:35:55.476Z,3.33
2022-12-04T09:36:57.915Z,3.37
2022-12-04T09:38:00.636Z,3.40
2022-12-04T09:39:03.289Z,3.46
2022-12-04T09:40:06.674Z,3.48
2022-12-04T09:41:09.408Z,3.52
2022-12-04T09:42:21.017Z,3.56
2022-12-04T09:43:31.956Z,3.59
2022-12-04T09:44:41.597Z,3.65
2022-12-04T09:45:49.611Z,3.71
2022-12-04T09:46:59.068Z,3.76
2022-12-04T09:48:02.275Z,3.79
2022-12-04T09:49:11.448Z,3.80
2022-12-04T09:50:19.821Z,3.84
2022-12-04T09:51:25.485Z,3.85
2022-12-04T09:52:32.735Z,3.87
2022-12-04T09:54:01.213Z,3.90
2022-12-04T09:55:05.814Z,3.95
2022-12-04T09:56:11.433Z,4.00
2022-12-04T09:57:21.746Z,4.03
2022-12-04T09:58:29.223Z,4.07
2022-12-04T09:59:32.717Z,4.10
2022-12-04T10:00:37.816Z,4.14
2022-12-04T10:01:49.206Z,4.16
2022-12-04T10:03:06.086Z,4.18
2022-12-04T10:04:10.883Z,4.23
2022-12-04T10:05:33.775Z,4.26
2022-12-04T10:06:48.403Z,4.32
2022-12-04T10:08:03.403Z,4.37
2022-12-04T10:09:23.353Z,4.43
2022-12-04T10:10:25.956Z,4.48
2022-12-04T10:11:37.744Z,4.51
2022-12-04T10:12:41.527Z,4.54
2022-12-04T10:13:50.363Z,4.59
2022-12-04T10:15:13.009Z,4.66
2022-12-04T10:16:39.136Z,4.74
2022-12-04T10:17:57.060Z,4.80
2022-12-04T10:19:26.032Z,4.87
2022-12-04T10:20:31.413Z,4.94
2022-12-04T10:21:40.031Z,5.00
2022-12-04T10:22:52.234Z,5.06
2022-12-04T10:24:12.328Z,5.12
2022-12-04T10:25:18.420Z,5.18
2022-12-04T10:26:22.819Z,5.38
2022-12-04T10:27:40.377Z,5.56
2022-12-04T10:28:48.310Z,5.61
2022-12-04T10:30:01.033Z,5.63
2022-12-04T10:31:04.709Z,5.68
2022-12-04T10:32:18.915Z,5.73
2022-12-04T10:33:41.340Z,5.81
2022-12-04T10:34:46.007Z,5.90
2022-12-04T10:35:52.424Z,5.95
2022-12-04T10:36:56.052Z,6.05
2022-12-04T10:38:04.777Z,6.09
2022-12-04T10:39:14.144Z,6.15
2022-12-04T10:40:21.507Z,6.20
2022-12-04T10:41:33.417Z,6.24
2022-12-04T10:42:35.594Z,6.30
2022-12-04T10:43:48.132Z,6.33
2022-12-04T10:44:50.477Z,6.40
2022-12-04T10:45:52.895Z,6.50
2022-12-04T10:47:01.060Z,6.88
2022-12-04T10:48:03.226Z,7.28
2022-12-04T10:49:07.265Z,7.49
2022-12-04T10:50:17.591Z,7.79
2022-12-04T10:51:21.734Z,8.20
2022-12-04T10:52:23.607Z,8.46
2022-12-04T10:53:30.351Z,8.59
2022-12-04T10:54:34.348Z,8.77
2022-12-04T10:55:38.558Z,8.91
2022-12-04T10:56:51.165Z,9.11
2022-12-04T10:57:53.695Z,9.15
2022-12-04T10:59:00.420Z,9.33
2022-12-04T11:00:02.335Z,9.40
2022-12-04T11:01:06.167Z,9.86
2022-12-04T11:02:21.271Z,9.88
2022-12-04T11:03:25.142Z,9.99
2022-12-04T11:04:28.429Z,10.19
2022-12-04T11:05:30.234Z,10.29
2022-12-04T11:06:32.658Z,10.42
2022-12-04T11:07:43.615Z,10.36
2022-12-04T11:08:49.909Z,10.72
2022-12-04T11:10:01.855Z,10.89
2022-12-04T11:11:06.617Z,10.95
2022-12-04T11:12:16.593Z,11.06
2022-12-04T11:13:18.992Z,11.05
2022-12-04T11:14:22.449Z,11.02
2022-12-04T11:15:24.854Z,11.02
2022-12-04T11:16:36.347Z,11.02
2022-12-04T11:17:38.998Z,11.10
2022-12-04T11:18:48.486Z,11.08
2022-12-04T11:19:59.278Z,11.01
2022-12-04T11:21:24.917Z,11.35
2022-12-04T11:22:28.814Z,11.27
2022-12-04T11:23:34.087Z,11.26
2022-12-04T11:24:37.603Z,11.36
2022-12-04T11:25:45.494Z,11.48
2022-12-04T11:26:48.130Z,11.54
2022-12-04T11:27:52.646Z,11.43
2022-12-04T11:28:55.681Z,11.41
2022-12-04T11:29:59.068Z,11.40
2022-12-04T11:31:03.657Z,11.41
2022-12-04T11:32:08.329Z,11.46
2022-12-04T11:33:20.895Z,11.46
2022-12-04T11:34:25.385Z,11.39
2022-12-04T11:35:30.044Z,11.49
2022-12-04T11:36:37.770Z,11.59
2022-12-04T11:37:45.185Z,11.70
2022-12-04T11:38:48.417Z,11.66
2022-12-04T11:39:51.522Z,11.61
2022-12-04T11:40:55.842Z,11.63
2022-12-04T11:42:06.476Z,11.69
2022-12-04T11:43:12.355Z,11.77
2022-12-04T11:44:27.856Z,11.77
2022-12-04T11:45:29.934Z,11.74
2022-12-04T11:46:34.479Z,11.78
2022-12-04T11:47:37.149Z,11.79
2022-12-04T11:48:44.738Z,11.79
2022-12-04T11:50:00.739Z,11.86
2022-12-04T11:51:09.541Z,12.11
2022-12-04T11:52:22.214Z,12.12
2022-12-04T11:53:27.671Z,12.27
2022-12-04T11:54:39.526Z,12.23
2022-12-04T11:56:03.892Z,12.18
2022-12-04T11:57:06.598Z,12.12
2022-12-04T11:58:09.331Z,12.17
2022-12-04T11:59:18.411Z,12.23
2022-12-04T12:00:22.360Z,12.18
2022-12-04T12:01:30.970Z,12.14
2022-12-04T12:02:39.942Z,12.20
2022-12-04T12:03:50.558Z,12.25
2022-12-04T12:04:52.477Z,12.25
2022-12-04T12:06:14.297Z,12.31
2022-12-04T12:07:24.853Z,12.36
2022-12-04T12:08:46.002Z,12.31
2022-12-04T12:09:52.443Z,12.47
2022-12-04T12:11:11.132Z,12.52
2022-12-04T12:12:15.985Z,12.59
2022-12-04T12:13:27.155Z,12.58
2022-12-04T12:14:50.009Z,12.72
2022-12-04T12:15:55.776Z,12.73
2022-12-04T12:17:16.336Z,12.72
2022-12-04T12:18:20.896Z,12.80
2022-12-04T12:19:36.499Z,12.90
2022-12-04T12:20:55.988Z,13.06
2022-12-04T12:22:06.967Z,13.12
2022-12-04T12:23:16.702Z,13.23
2022-12-04T12:24:24.760Z,13.39
2022-12-04T12:25:38.897Z,13.49
2022-12-04T12:26:46.763Z,13.50
2022-12-04T12:27:50.851Z,13.56
2022-12-04T12:29:12.363Z,13.53
2022-12-04T12:30:20.623Z,13.56
2022-12-04T12:31:25.508Z,13.54
2022-12-04T12:32:41.929Z,13.51
2022-12-04T12:33:48.434Z,13.47
2022-12-04T12:34:51.381Z,13.45
2022-12-04T12:35:53.484Z,13.46
2022-12-04T12:37:00.936Z,13.48
2022-12-04T12:38:07.194Z,13.45
2022-12-04T12:39:24.825Z,13.47
2022-12-04T12:40:36.422Z,13.38
2022-12-04T12:42:04.667Z,13.43
2022-12-04T12:43:12.213Z,13.31
2022-12-04T12:44:26.758Z,13.40
2022-12-04T12:45:51.177Z,13.39
2022-12-04T12:47:04.722Z,13.39
2022-12-04T12:48:33.649Z,13.42
2022-12-04T12:49:41.534Z,13.40
2022-12-04T12:52:32.512Z,13.24
2022-12-04T12:53:37.870Z,13.24
2022-12-04T12:54:40.599Z,13.24
2022-12-04T12:55:53.315Z,13.17
2022-12-04T12:56:58.240Z,13.15
2022-12-04T12:58:13.199Z,13.23
2022-12-04T12:59:30.231Z,13.18
2022-12-04T13:00:37.602Z,13.10
2022-12-04T13:01:49.190Z,13.08
2022-12-04T13:03:01.585Z,13.08
2022-12-04T13:04:12.193Z,13.08
2022-12-04T13:05:16.956Z,13.09
2022-12-04T13:06:21.371Z,13.02
2022-12-04T13:07:23.753Z,12.97
2022-12-04T13:08:28.293Z,13.01
2022-12-04T13:09:33.734Z,13.00
2022-12-04T13:10:35.758Z,13.04
2022-12-04T13:11:38.518Z,13.07
2022-12-04T13:12:49.496Z,13.07
2022-12-04T13:13:56.456Z,13.07
2022-12-04T13:14:58.462Z,12.96
2022-12-04T13:16:06.015Z,12.90
2022-12-04T13:17:10.896Z,12.90
2022-12-04T13:18:21.351Z,12.91
2022-12-04T13:19:23.285Z,12.85
2022-12-04T13:20:28.191Z,12.86
2022-12-04T13:21:52.988Z,12.80
2022-12-04T13:22:57.818Z,12.78
2022-12-04T13:24:05.817Z,12.75
2022-12-04T13:25:13.804Z,12.74
2022-12-04T13:26:34.597Z,12.78
2022-12-04T13:27:36.383Z,12.81
2022-12-04T13:28:56.062Z,12.81
2022-12-04T13:30:14.615Z,12.75
2022-12-04T13:31:22.637Z,12.68
2022-12-04T13:32:37.575Z,12.69
2022-12-04T13:34:05.788Z,12.71
2022-12-04T13:35:14.995Z,12.70
2022-12-04T13:36:35.338Z,12.70
2022-12-04T13:37:56.055Z,12.68
2022-12-04T13:39:00.988Z,12.60
2022-12-04T13:40:15.150Z,12.57
2022-12-04T13:41:18.639Z,12.54
2022-12-04T13:42:25.580Z,12.51
2022-12-04T13:43:42.941Z,12.51
2022-12-04T13:44:53.519Z,12.46
2022-12-04T13:45:57.208Z,12.48
2022-12-04T13:47:04.665Z,12.46
2022-12-04T13:48:06.641Z,12.47
2022-12-04T13:49:17.480Z,12.47
2022-12-04T13:50:19.325Z,12.47
2022-12-04T13:51:21.311Z,12.45
2022-12-04T13:52:26.462Z,12.46
2022-12-04T13:53:32.861Z,12.46
2022-12-04T13:54:36.162Z,12.44
2022-12-04T13:55:39.426Z,12.41
2022-12-04T13:56:45.631Z,12.43
2022-12-04T13:58:02.439Z,12.46
2022-12-04T13:59:05.793Z,12.44
2022-12-04T14:00:24.769Z,12.44
2022-12-04T14:01:31.534Z,12.47
2022-12-04T14:02:38.695Z,12.49
2022-12-04T14:03:51.546Z,12.50
2022-12-04T14:04:53.928Z,12.49
2022-12-04T14:05:56.964Z,12.44
2022-12-04T14:07:04.157Z,12.37
2022-12-04T14:08:23.926Z,12.36
2022-12-04T14:09:31.607Z,12.32
2022-12-04T14:10:36.597Z,12.29
2022-12-04T14:11:49.267Z,12.25
2022-12-04T14:13:11.603Z,12.27
2022-12-04T14:14:29.879Z,12.27
2022-12-04T14:15:37.581Z,12.34
2022-12-04T14:16:40.988Z,12.30
2022-12-04T14:17:44.387Z,12.29
2022-12-04T14:18:48.568Z,12.30
2022-12-04T14:19:54.962Z,12.29
2022-12-04T14:21:02.565Z,12.28
2022-12-04T14:22:04.916Z,12.30
2022-12-04T14:23:27.628Z,12.34
2022-12-04T14:24:35.141Z,12.34
2022-12-04T14:25:40.708Z,12.31
2022-12-04T14:28:24.117Z,12.27
2022-12-04T14:29:40.305Z,12.21
2022-12-04T14:30:45.051Z,12.18
2022-12-04T14:31:47.078Z,12.18
2022-12-04T14:32:50.662Z,12.17
2022-12-04T14:33:58.842Z,12.16
2022-12-04T14:35:01.675Z,12.17
2022-12-04T14:36:08.696Z,12.13
2022-12-04T14:37:19.131Z,12.12
2022-12-04T14:38:22.281Z,12.09
2022-12-04T14:39:28.721Z,12.04